<?xml version="1.0" encoding="UTF-8" standalone="no" ?>
<gpx xmlns="http://www.topografix.com/GPX/1/1" xmlns:xsi="http://www.w3.org/2001/XMLSchema-instance" xsi:schemaLocation="http://www.topografix.com/GPX/1/1 http://www.topografix.com/GPX/1/1/gpx.xsd" version="1.1" creator="VisuGPX - https://www.visugpx.com">
  <metadata>
    <name>Rieux_ValdeVilaine_20-23km</name>
    <desc><![CDATA[gnerando idor:6533441_10496627]]></desc>
  </metadata>
  <trk>
    <name><![CDATA[Enregistrement du 06/03/2024-18490647]]></name>
    <extensions>
      <line xmlns="http://www.topografix.com/GPX/gpx_style/0/2">
        <color>FF0000</color>
        <width>4</width>
      </line>
    </extensions>
    <trkseg>
      <trkpt lat="47.59723" lon="-2.10848">
        <ele>24</ele>
        <time>2024-03-22T18:09:03Z</time>
      </trkpt>
      <trkpt lat="47.59729" lon="-2.10839">
        <ele>24</ele>
        <time>2024-03-22T18:09:14Z</time>
      </trkpt>
      <trkpt lat="47.59732" lon="-2.1082">
        <ele>24</ele>
        <time>2024-03-22T18:09:32Z</time>
      </trkpt>
      <trkpt lat="47.59763" lon="-2.10817">
        <ele>24</ele>
        <time>2024-03-22T18:10:13Z</time>
      </trkpt>
      <trkpt lat="47.59773" lon="-2.1083">
        <ele>25</ele>
        <time>2024-03-22T18:10:31Z</time>
      </trkpt>
      <trkpt lat="47.59776" lon="-2.10856">
        <ele>25</ele>
        <time>2024-03-22T18:10:55Z</time>
      </trkpt>
      <trkpt lat="47.59758" lon="-2.10833">
        <ele>24</ele>
        <time>2024-03-22T18:11:27Z</time>
      </trkpt>
      <trkpt lat="47.59764" lon="-2.10819">
        <ele>24</ele>
        <time>2024-03-22T18:11:42Z</time>
      </trkpt>
      <trkpt lat="47.59768" lon="-2.10822">
        <ele>24</ele>
        <time>2024-03-22T18:11:48Z</time>
      </trkpt>
      <trkpt lat="47.59772" lon="-2.10819">
        <ele>24</ele>
        <time>2024-03-22T18:11:53Z</time>
      </trkpt>
      <trkpt lat="47.59776" lon="-2.10771">
        <ele>24</ele>
        <time>2024-03-22T18:12:37Z</time>
      </trkpt>
      <trkpt lat="47.59791" lon="-2.10702">
        <ele>24</ele>
        <time>2024-03-22T18:13:42Z</time>
      </trkpt>
      <trkpt lat="47.59791" lon="-2.10651">
        <ele>23</ele>
        <time>2024-03-22T18:14:28Z</time>
      </trkpt>
      <trkpt lat="47.59801" lon="-2.10598">
        <ele>23</ele>
        <time>2024-03-22T18:15:18Z</time>
      </trkpt>
      <trkpt lat="47.59811" lon="-2.1057">
        <ele>22</ele>
        <time>2024-03-22T18:15:46Z</time>
      </trkpt>
      <trkpt lat="47.59808" lon="-2.10524">
        <ele>20</ele>
        <time>2024-03-22T18:16:28Z</time>
      </trkpt>
      <trkpt lat="47.59821" lon="-2.10477">
        <ele>19</ele>
        <time>2024-03-22T18:17:13Z</time>
      </trkpt>
      <trkpt lat="47.59821" lon="-2.10469">
        <ele>19</ele>
        <time>2024-03-22T18:17:21Z</time>
      </trkpt>
      <trkpt lat="47.59797" lon="-2.10453">
        <ele>17</ele>
        <time>2024-03-22T18:17:56Z</time>
      </trkpt>
      <trkpt lat="47.5974" lon="-2.10436">
        <ele>13</ele>
        <time>2024-03-22T18:19:13Z</time>
      </trkpt>
      <trkpt lat="47.59717" lon="-2.10424">
        <ele>11</ele>
        <time>2024-03-22T18:19:46Z</time>
      </trkpt>
      <trkpt lat="47.59699" lon="-2.10431">
        <ele>10</ele>
        <time>2024-03-22T18:20:11Z</time>
      </trkpt>
      <trkpt lat="47.59665" lon="-2.10464">
        <ele>9</ele>
        <time>2024-03-22T18:21:05Z</time>
      </trkpt>
      <trkpt lat="47.59651" lon="-2.10466">
        <ele>10</ele>
        <time>2024-03-22T18:21:24Z</time>
      </trkpt>
      <trkpt lat="47.59497" lon="-2.10416">
        <ele>10</ele>
        <time>2024-03-22T18:24:54Z</time>
      </trkpt>
      <trkpt lat="47.5945" lon="-2.10413">
        <ele>7</ele>
        <time>2024-03-22T18:25:57Z</time>
      </trkpt>
      <trkpt lat="47.59397" lon="-2.10428">
        <ele>6</ele>
        <time>2024-03-22T18:27:09Z</time>
      </trkpt>
      <trkpt lat="47.59357" lon="-2.10448">
        <ele>6</ele>
        <time>2024-03-22T18:28:05Z</time>
      </trkpt>
      <trkpt lat="47.5934" lon="-2.10467">
        <ele>6</ele>
        <time>2024-03-22T18:28:34Z</time>
      </trkpt>
      <trkpt lat="47.59331" lon="-2.10505">
        <ele>8</ele>
        <time>2024-03-22T18:29:10Z</time>
      </trkpt>
      <trkpt lat="47.59319" lon="-2.10521">
        <ele>9</ele>
        <time>2024-03-22T18:29:31Z</time>
      </trkpt>
      <trkpt lat="47.59263" lon="-2.10556">
        <ele>9</ele>
        <time>2024-03-22T18:30:53Z</time>
      </trkpt>
      <trkpt lat="47.5923" lon="-2.10567">
        <ele>8</ele>
        <time>2024-03-22T18:31:38Z</time>
      </trkpt>
      <trkpt lat="47.59227" lon="-2.10566">
        <ele>8</ele>
        <time>2024-03-22T18:31:42Z</time>
      </trkpt>
      <trkpt lat="47.59224" lon="-2.10548">
        <ele>7</ele>
        <time>2024-03-22T18:31:58Z</time>
      </trkpt>
      <trkpt lat="47.59219" lon="-2.10456">
        <ele>2</ele>
        <time>2024-03-22T18:33:22Z</time>
      </trkpt>
      <trkpt lat="47.59212" lon="-2.10443">
        <ele>2</ele>
        <time>2024-03-22T18:33:36Z</time>
      </trkpt>
      <trkpt lat="47.59196" lon="-2.1044">
        <ele>2</ele>
        <time>2024-03-22T18:33:58Z</time>
      </trkpt>
      <trkpt lat="47.5911" lon="-2.10455">
        <ele>2</ele>
        <time>2024-03-22T18:35:54Z</time>
      </trkpt>
      <trkpt lat="47.59021" lon="-2.1048">
        <ele>3</ele>
        <time>2024-03-22T18:37:54Z</time>
      </trkpt>
      <trkpt lat="47.58958" lon="-2.10471">
        <ele>2</ele>
        <time>2024-03-22T18:39:19Z</time>
      </trkpt>
      <trkpt lat="47.589" lon="-2.1045">
        <ele>2</ele>
        <time>2024-03-22T18:40:39Z</time>
      </trkpt>
      <trkpt lat="47.58846" lon="-2.1042">
        <ele>1</ele>
        <time>2024-03-22T18:41:56Z</time>
      </trkpt>
      <trkpt lat="47.58826" lon="-2.10414">
        <ele>1</ele>
        <time>2024-03-22T18:42:23Z</time>
      </trkpt>
      <trkpt lat="47.58661" lon="-2.10332">
        <ele>2</ele>
        <time>2024-03-22T18:46:15Z</time>
      </trkpt>
      <trkpt lat="47.58588" lon="-2.10304">
        <ele>2</ele>
        <time>2024-03-22T18:47:56Z</time>
      </trkpt>
      <trkpt lat="47.58536" lon="-2.10276">
        <ele>1</ele>
        <time>2024-03-22T18:49:09Z</time>
      </trkpt>
      <trkpt lat="47.58371" lon="-2.102">
        <ele>1</ele>
        <time>2024-03-22T18:53:00Z</time>
      </trkpt>
      <trkpt lat="47.5836" lon="-2.10191">
        <ele>1</ele>
        <time>2024-03-22T18:53:17Z</time>
      </trkpt>
      <trkpt lat="47.58234" lon="-2.10136">
        <ele>2</ele>
        <time>2024-03-22T18:56:12Z</time>
      </trkpt>
      <trkpt lat="47.58111" lon="-2.10073">
        <ele>4</ele>
        <time>2024-03-22T18:59:06Z</time>
      </trkpt>
      <trkpt lat="47.58055" lon="-2.10067">
        <ele>3</ele>
        <time>2024-03-22T19:00:21Z</time>
      </trkpt>
      <trkpt lat="47.58027" lon="-2.10072">
        <ele>3</ele>
        <time>2024-03-22T19:00:58Z</time>
      </trkpt>
      <trkpt lat="47.58001" lon="-2.10084">
        <ele>3</ele>
        <time>2024-03-22T19:01:35Z</time>
      </trkpt>
      <trkpt lat="47.57973" lon="-2.10115">
        <ele>3</ele>
        <time>2024-03-22T19:02:21Z</time>
      </trkpt>
      <trkpt lat="47.57955" lon="-2.10142">
        <ele>4</ele>
        <time>2024-03-22T19:02:55Z</time>
      </trkpt>
      <trkpt lat="47.57921" lon="-2.10209">
        <ele>3</ele>
        <time>2024-03-22T19:04:11Z</time>
      </trkpt>
      <trkpt lat="47.57898" lon="-2.1031">
        <ele>2</ele>
        <time>2024-03-22T19:05:47Z</time>
      </trkpt>
      <trkpt lat="47.57859" lon="-2.10451">
        <ele>1</ele>
        <time>2024-03-22T19:08:04Z</time>
      </trkpt>
      <trkpt lat="47.57851" lon="-2.10514">
        <ele>2.8</ele>
        <time>2024-03-22T19:09:02Z</time>
      </trkpt>
      <trkpt lat="47.57851" lon="-2.10552">
        <ele>3</ele>
        <time>2024-03-22T19:09:36Z</time>
      </trkpt>
      <trkpt lat="47.57862" lon="-2.10631">
        <ele>1</ele>
        <time>2024-03-22T19:10:49Z</time>
      </trkpt>
      <trkpt lat="47.5788" lon="-2.10689">
        <ele>2</ele>
        <time>2024-03-22T19:11:46Z</time>
      </trkpt>
      <trkpt lat="47.57886" lon="-2.10734">
        <ele>2</ele>
        <time>2024-03-22T19:12:27Z</time>
      </trkpt>
      <trkpt lat="47.57907" lon="-2.10789">
        <ele>2</ele>
        <time>2024-03-22T19:13:24Z</time>
      </trkpt>
      <trkpt lat="47.57936" lon="-2.10899">
        <ele>3</ele>
        <time>2024-03-22T19:15:11Z</time>
      </trkpt>
      <trkpt lat="47.57953" lon="-2.10987">
        <ele>2</ele>
        <time>2024-03-22T19:16:33Z</time>
      </trkpt>
      <trkpt lat="47.57974" lon="-2.11066">
        <ele>2</ele>
        <time>2024-03-22T19:17:49Z</time>
      </trkpt>
      <trkpt lat="47.57985" lon="-2.11121">
        <ele>2</ele>
        <time>2024-03-22T19:18:41Z</time>
      </trkpt>
      <trkpt lat="47.57987" lon="-2.11151">
        <ele>3</ele>
        <time>2024-03-22T19:19:08Z</time>
      </trkpt>
      <trkpt lat="47.57991" lon="-2.11357">
        <ele>3</ele>
        <time>2024-03-22T19:22:14Z</time>
      </trkpt>
      <trkpt lat="47.57975" lon="-2.1153">
        <ele>3</ele>
        <time>2024-03-22T19:24:51Z</time>
      </trkpt>
      <trkpt lat="47.57942" lon="-2.11705">
        <ele>3</ele>
        <time>2024-03-22T19:27:34Z</time>
      </trkpt>
      <trkpt lat="47.579" lon="-2.11852">
        <ele>1</ele>
        <time>2024-03-22T19:29:58Z</time>
      </trkpt>
      <trkpt lat="47.57868" lon="-2.11988">
        <ele>2</ele>
        <time>2024-03-22T19:32:08Z</time>
      </trkpt>
      <trkpt lat="47.57868" lon="-2.12082">
        <ele>3</ele>
        <time>2024-03-22T19:33:32Z</time>
      </trkpt>
      <trkpt lat="47.57881" lon="-2.12155">
        <ele>3</ele>
        <time>2024-03-22T19:34:40Z</time>
      </trkpt>
      <trkpt lat="47.57911" lon="-2.12252">
        <ele>3</ele>
        <time>2024-03-22T19:36:16Z</time>
      </trkpt>
      <trkpt lat="47.57972" lon="-2.12361">
        <ele>3</ele>
        <time>2024-03-22T19:38:24Z</time>
      </trkpt>
      <trkpt lat="47.57992" lon="-2.12393">
        <ele>3</ele>
        <time>2024-03-22T19:39:03Z</time>
      </trkpt>
      <trkpt lat="47.58012" lon="-2.12415">
        <ele>3</ele>
        <time>2024-03-22T19:39:36Z</time>
      </trkpt>
      <trkpt lat="47.58043" lon="-2.1249">
        <ele>3</ele>
        <time>2024-03-22T19:40:56Z</time>
      </trkpt>
      <trkpt lat="47.5805" lon="-2.12518">
        <ele>2</ele>
        <time>2024-03-22T19:41:22Z</time>
      </trkpt>
      <trkpt lat="47.58055" lon="-2.12524">
        <ele>3</ele>
        <time>2024-03-22T19:41:31Z</time>
      </trkpt>
      <trkpt lat="47.58081" lon="-2.12527">
        <ele>3</ele>
        <time>2024-03-22T19:42:06Z</time>
      </trkpt>
      <trkpt lat="47.58096" lon="-2.12541">
        <ele>3</ele>
        <time>2024-03-22T19:42:30Z</time>
      </trkpt>
      <trkpt lat="47.58123" lon="-2.12577">
        <ele>2</ele>
        <time>2024-03-22T19:43:18Z</time>
      </trkpt>
      <trkpt lat="47.58163" lon="-2.12643">
        <ele>2</ele>
        <time>2024-03-22T19:44:38Z</time>
      </trkpt>
      <trkpt lat="47.58178" lon="-2.12656">
        <ele>2</ele>
        <time>2024-03-22T19:45:01Z</time>
      </trkpt>
      <trkpt lat="47.5819" lon="-2.12656">
        <ele>2</ele>
        <time>2024-03-22T19:45:17Z</time>
      </trkpt>
      <trkpt lat="47.5828" lon="-2.12629">
        <ele>1</ele>
        <time>2024-03-22T19:47:20Z</time>
      </trkpt>
      <trkpt lat="47.58393" lon="-2.12604">
        <ele>1</ele>
        <time>2024-03-22T19:49:52Z</time>
      </trkpt>
      <trkpt lat="47.58461" lon="-2.12583">
        <ele>1</ele>
        <time>2024-03-22T19:51:25Z</time>
      </trkpt>
      <trkpt lat="47.58596" lon="-2.12553">
        <ele>2</ele>
        <time>2024-03-22T19:54:27Z</time>
      </trkpt>
      <trkpt lat="47.58624" lon="-2.12543">
        <ele>1</ele>
        <time>2024-03-22T19:55:05Z</time>
      </trkpt>
      <trkpt lat="47.58679" lon="-2.12537">
        <ele>1</ele>
        <time>2024-03-22T19:56:19Z</time>
      </trkpt>
      <trkpt lat="47.58728" lon="-2.1252">
        <ele>2</ele>
        <time>2024-03-22T19:57:26Z</time>
      </trkpt>
      <trkpt lat="47.58862" lon="-2.12487">
        <ele>3</ele>
        <time>2024-03-22T20:00:27Z</time>
      </trkpt>
      <trkpt lat="47.58907" lon="-2.1248">
        <ele>3</ele>
        <time>2024-03-22T20:01:28Z</time>
      </trkpt>
      <trkpt lat="47.58944" lon="-2.12468">
        <ele>3</ele>
        <time>2024-03-22T20:02:18Z</time>
      </trkpt>
      <trkpt lat="47.5897" lon="-2.12466">
        <ele>4</ele>
        <time>2024-03-22T20:02:53Z</time>
      </trkpt>
      <trkpt lat="47.5898" lon="-2.12564">
        <ele>4</ele>
        <time>2024-03-22T20:04:22Z</time>
      </trkpt>
      <trkpt lat="47.58972" lon="-2.1262">
        <ele>4</ele>
        <time>2024-03-22T20:05:14Z</time>
      </trkpt>
      <trkpt lat="47.5898" lon="-2.12688">
        <ele>4</ele>
        <time>2024-03-22T20:06:16Z</time>
      </trkpt>
      <trkpt lat="47.58975" lon="-2.12761">
        <ele>3</ele>
        <time>2024-03-22T20:07:22Z</time>
      </trkpt>
      <trkpt lat="47.58983" lon="-2.12805">
        <ele>3</ele>
        <time>2024-03-22T20:08:03Z</time>
      </trkpt>
      <trkpt lat="47.58993" lon="-2.12835">
        <ele>4</ele>
        <time>2024-03-22T20:08:33Z</time>
      </trkpt>
      <trkpt lat="47.59024" lon="-2.129">
        <ele>5</ele>
        <time>2024-03-22T20:09:45Z</time>
      </trkpt>
      <trkpt lat="47.59035" lon="-2.1294">
        <ele>6</ele>
        <time>2024-03-22T20:10:24Z</time>
      </trkpt>
      <trkpt lat="47.5903" lon="-2.12964">
        <ele>6</ele>
        <time>2024-03-22T20:10:46Z</time>
      </trkpt>
      <trkpt lat="47.59007" lon="-2.1301">
        <ele>4</ele>
        <time>2024-03-22T20:11:38Z</time>
      </trkpt>
      <trkpt lat="47.58998" lon="-2.13037">
        <ele>4</ele>
        <time>2024-03-22T20:12:05Z</time>
      </trkpt>
      <trkpt lat="47.58985" lon="-2.13099">
        <ele>3</ele>
        <time>2024-03-22T20:13:03Z</time>
      </trkpt>
      <trkpt lat="47.58987" lon="-2.1314">
        <ele>3</ele>
        <time>2024-03-22T20:13:40Z</time>
      </trkpt>
      <trkpt lat="47.58996" lon="-2.13173">
        <ele>4</ele>
        <time>2024-03-22T20:14:12Z</time>
      </trkpt>
      <trkpt lat="47.59027" lon="-2.13237">
        <ele>7</ele>
        <time>2024-03-22T20:15:23Z</time>
      </trkpt>
      <trkpt lat="47.59041" lon="-2.13249">
        <ele>8</ele>
        <time>2024-03-22T20:15:45Z</time>
      </trkpt>
      <trkpt lat="47.59054" lon="-2.13253">
        <ele>9</ele>
        <time>2024-03-22T20:16:03Z</time>
      </trkpt>
      <trkpt lat="47.59084" lon="-2.13247">
        <ele>11</ele>
        <time>2024-03-22T20:16:43Z</time>
      </trkpt>
      <trkpt lat="47.59101" lon="-2.13248">
        <ele>13</ele>
        <time>2024-03-22T20:17:06Z</time>
      </trkpt>
      <trkpt lat="47.59121" lon="-2.13277">
        <ele>15</ele>
        <time>2024-03-22T20:17:43Z</time>
      </trkpt>
      <trkpt lat="47.59122" lon="-2.1329">
        <ele>16</ele>
        <time>2024-03-22T20:17:55Z</time>
      </trkpt>
      <trkpt lat="47.59102" lon="-2.13367">
        <ele>17</ele>
        <time>2024-03-22T20:19:09Z</time>
      </trkpt>
      <trkpt lat="47.59089" lon="-2.13401">
        <ele>18</ele>
        <time>2024-03-22T20:19:44Z</time>
      </trkpt>
      <trkpt lat="47.59083" lon="-2.13441">
        <ele>19</ele>
        <time>2024-03-22T20:20:21Z</time>
      </trkpt>
      <trkpt lat="47.59083" lon="-2.13465">
        <ele>20</ele>
        <time>2024-03-22T20:20:43Z</time>
      </trkpt>
      <trkpt lat="47.59103" lon="-2.13559">
        <ele>23</ele>
        <time>2024-03-22T20:22:11Z</time>
      </trkpt>
      <trkpt lat="47.59108" lon="-2.13618">
        <ele>24</ele>
        <time>2024-03-22T20:23:05Z</time>
      </trkpt>
      <trkpt lat="47.59112" lon="-2.13627">
        <ele>24</ele>
        <time>2024-03-22T20:23:15Z</time>
      </trkpt>
      <trkpt lat="47.59137" lon="-2.13626">
        <ele>25</ele>
        <time>2024-03-22T20:23:48Z</time>
      </trkpt>
      <trkpt lat="47.59204" lon="-2.13599">
        <ele>24</ele>
        <time>2024-03-22T20:25:21Z</time>
      </trkpt>
      <trkpt lat="47.59254" lon="-2.13558">
        <ele>24</ele>
        <time>2024-03-22T20:26:37Z</time>
      </trkpt>
      <trkpt lat="47.59336" lon="-2.13542">
        <ele>23</ele>
        <time>2024-03-22T20:28:27Z</time>
      </trkpt>
      <trkpt lat="47.59353" lon="-2.13534">
        <ele>23</ele>
        <time>2024-03-22T20:28:51Z</time>
      </trkpt>
      <trkpt lat="47.59389" lon="-2.13506">
        <ele>23</ele>
        <time>2024-03-22T20:29:45Z</time>
      </trkpt>
      <trkpt lat="47.59417" lon="-2.13474">
        <ele>23</ele>
        <time>2024-03-22T20:30:32Z</time>
      </trkpt>
      <trkpt lat="47.5946" lon="-2.13441">
        <ele>24</ele>
        <time>2024-03-22T20:31:37Z</time>
      </trkpt>
      <trkpt lat="47.595" lon="-2.13528">
        <ele>24</ele>
        <time>2024-03-22T20:33:12Z</time>
      </trkpt>
      <trkpt lat="47.59528" lon="-2.13554">
        <ele>24</ele>
        <time>2024-03-22T20:33:56Z</time>
      </trkpt>
      <trkpt lat="47.59557" lon="-2.13573">
        <ele>25</ele>
        <time>2024-03-22T20:34:38Z</time>
      </trkpt>
      <trkpt lat="47.59578" lon="-2.13599">
        <ele>26</ele>
        <time>2024-03-22T20:35:15Z</time>
      </trkpt>
      <trkpt lat="47.59593" lon="-2.13663">
        <ele>25</ele>
        <time>2024-03-22T20:36:16Z</time>
      </trkpt>
      <trkpt lat="47.59691" lon="-2.13661">
        <ele>22</ele>
        <time>2024-03-22T20:38:26Z</time>
      </trkpt>
      <trkpt lat="47.5974" lon="-2.1364">
        <ele>21</ele>
        <time>2024-03-22T20:39:35Z</time>
      </trkpt>
      <trkpt lat="47.59759" lon="-2.13637">
        <ele>21</ele>
        <time>2024-03-22T20:40:00Z</time>
      </trkpt>
      <trkpt lat="47.59788" lon="-2.13637">
        <ele>20</ele>
        <time>2024-03-22T20:40:39Z</time>
      </trkpt>
      <trkpt lat="47.59795" lon="-2.13641">
        <ele>19</ele>
        <time>2024-03-22T20:40:49Z</time>
      </trkpt>
      <trkpt lat="47.59797" lon="-2.13635">
        <ele>19</ele>
        <time>2024-03-22T20:40:55Z</time>
      </trkpt>
      <trkpt lat="47.59802" lon="-2.1365">
        <ele>19</ele>
        <time>2024-03-22T20:41:10Z</time>
      </trkpt>
      <trkpt lat="47.59808" lon="-2.13651">
        <ele>18</ele>
        <time>2024-03-22T20:41:18Z</time>
      </trkpt>
      <trkpt lat="47.59816" lon="-2.13673">
        <ele>18</ele>
        <time>2024-03-22T20:41:40Z</time>
      </trkpt>
      <trkpt lat="47.59814" lon="-2.13686">
        <ele>18</ele>
        <time>2024-03-22T20:41:52Z</time>
      </trkpt>
      <trkpt lat="47.5982" lon="-2.13709">
        <ele>19</ele>
        <time>2024-03-22T20:42:15Z</time>
      </trkpt>
      <trkpt lat="47.59813" lon="-2.13724">
        <ele>20</ele>
        <time>2024-03-22T20:42:31Z</time>
      </trkpt>
      <trkpt lat="47.59799" lon="-2.13733">
        <ele>20</ele>
        <time>2024-03-22T20:42:51Z</time>
      </trkpt>
      <trkpt lat="47.59796" lon="-2.13741">
        <ele>20</ele>
        <time>2024-03-22T20:43:00Z</time>
      </trkpt>
      <trkpt lat="47.598" lon="-2.13744">
        <ele>20</ele>
        <time>2024-03-22T20:43:06Z</time>
      </trkpt>
      <trkpt lat="47.59827" lon="-2.13741">
        <ele>21</ele>
        <time>2024-03-22T20:43:42Z</time>
      </trkpt>
      <trkpt lat="47.59832" lon="-2.13746">
        <ele>22</ele>
        <time>2024-03-22T20:43:50Z</time>
      </trkpt>
      <trkpt lat="47.59835" lon="-2.13783">
        <ele>23</ele>
        <time>2024-03-22T20:44:23Z</time>
      </trkpt>
      <trkpt lat="47.59829" lon="-2.13885">
        <ele>23</ele>
        <time>2024-03-22T20:45:55Z</time>
      </trkpt>
      <trkpt lat="47.59832" lon="-2.13902">
        <ele>22</ele>
        <time>2024-03-22T20:46:11Z</time>
      </trkpt>
      <trkpt lat="47.59831" lon="-2.13981">
        <ele>20</ele>
        <time>2024-03-22T20:47:22Z</time>
      </trkpt>
      <trkpt lat="47.59842" lon="-2.14035">
        <ele>20</ele>
        <time>2024-03-22T20:48:13Z</time>
      </trkpt>
      <trkpt lat="47.5986" lon="-2.14057">
        <ele>21</ele>
        <time>2024-03-22T20:48:44Z</time>
      </trkpt>
      <trkpt lat="47.59879" lon="-2.14047">
        <ele>21</ele>
        <time>2024-03-22T20:49:11Z</time>
      </trkpt>
      <trkpt lat="47.59946" lon="-2.13994">
        <ele>24</ele>
        <time>2024-03-22T20:50:52Z</time>
      </trkpt>
      <trkpt lat="47.59964" lon="-2.13989">
        <ele>25</ele>
        <time>2024-03-22T20:51:17Z</time>
      </trkpt>
      <trkpt lat="47.60009" lon="-2.13955">
        <ele>27</ele>
        <time>2024-03-22T20:52:24Z</time>
      </trkpt>
      <trkpt lat="47.6003" lon="-2.13948">
        <ele>28</ele>
        <time>2024-03-22T20:52:53Z</time>
      </trkpt>
      <trkpt lat="47.6004" lon="-2.13928">
        <ele>28</ele>
        <time>2024-03-22T20:53:15Z</time>
      </trkpt>
      <trkpt lat="47.60061" lon="-2.13813">
        <ele>29</ele>
        <time>2024-03-22T20:55:03Z</time>
      </trkpt>
      <trkpt lat="47.60091" lon="-2.13801">
        <ele>31</ele>
        <time>2024-03-22T20:55:44Z</time>
      </trkpt>
      <trkpt lat="47.60123" lon="-2.13801">
        <ele>34</ele>
        <time>2024-03-22T20:56:27Z</time>
      </trkpt>
      <trkpt lat="47.60142" lon="-2.13797">
        <ele>36</ele>
        <time>2024-03-22T20:56:52Z</time>
      </trkpt>
      <trkpt lat="47.60154" lon="-2.13801">
        <ele>37</ele>
        <time>2024-03-22T20:57:09Z</time>
      </trkpt>
      <trkpt lat="47.6016" lon="-2.13823">
        <ele>39</ele>
        <time>2024-03-22T20:57:30Z</time>
      </trkpt>
      <trkpt lat="47.60159" lon="-2.139">
        <ele>38</ele>
        <time>2024-03-22T20:58:39Z</time>
      </trkpt>
      <trkpt lat="47.60155" lon="-2.13924">
        <ele>37</ele>
        <time>2024-03-22T20:59:02Z</time>
      </trkpt>
      <trkpt lat="47.60134" lon="-2.13999">
        <ele>34</ele>
        <time>2024-03-22T21:00:15Z</time>
      </trkpt>
      <trkpt lat="47.60128" lon="-2.14034">
        <ele>34</ele>
        <time>2024-03-22T21:00:47Z</time>
      </trkpt>
      <trkpt lat="47.60096" lon="-2.14127">
        <ele>33</ele>
        <time>2024-03-22T21:02:21Z</time>
      </trkpt>
      <trkpt lat="47.6009" lon="-2.14153">
        <ele>34</ele>
        <time>2024-03-22T21:02:46Z</time>
      </trkpt>
      <trkpt lat="47.6009" lon="-2.14177">
        <ele>35</ele>
        <time>2024-03-22T21:03:08Z</time>
      </trkpt>
      <trkpt lat="47.60111" lon="-2.14397">
        <ele>45</ele>
        <time>2024-03-22T21:06:27Z</time>
      </trkpt>
      <trkpt lat="47.60116" lon="-2.14409">
        <ele>46</ele>
        <time>2024-03-22T21:06:40Z</time>
      </trkpt>
      <trkpt lat="47.60152" lon="-2.14445">
        <ele>51</ele>
        <time>2024-03-22T21:07:38Z</time>
      </trkpt>
      <trkpt lat="47.60161" lon="-2.14477">
        <ele>53</ele>
        <time>2024-03-22T21:08:09Z</time>
      </trkpt>
      <trkpt lat="47.60161" lon="-2.14497">
        <ele>54</ele>
        <time>2024-03-22T21:08:27Z</time>
      </trkpt>
      <trkpt lat="47.60151" lon="-2.14549">
        <ele>54</ele>
        <time>2024-03-22T21:09:16Z</time>
      </trkpt>
      <trkpt lat="47.60131" lon="-2.14607">
        <ele>52</ele>
        <time>2024-03-22T21:10:15Z</time>
      </trkpt>
      <trkpt lat="47.6012" lon="-2.14654">
        <ele>51</ele>
        <time>2024-03-22T21:10:59Z</time>
      </trkpt>
      <trkpt lat="47.60119" lon="-2.14678">
        <ele>51</ele>
        <time>2024-03-22T21:11:21Z</time>
      </trkpt>
      <trkpt lat="47.60127" lon="-2.14733">
        <ele>51</ele>
        <time>2024-03-22T21:12:12Z</time>
      </trkpt>
      <trkpt lat="47.60112" lon="-2.14824">
        <ele>51</ele>
        <time>2024-03-22T21:13:36Z</time>
      </trkpt>
      <trkpt lat="47.60113" lon="-2.14932">
        <ele>54</ele>
        <time>2024-03-22T21:15:13Z</time>
      </trkpt>
      <trkpt lat="47.60105" lon="-2.14996">
        <ele>57</ele>
        <time>2024-03-22T21:16:12Z</time>
      </trkpt>
      <trkpt lat="47.60098" lon="-2.15019">
        <ele>58</ele>
        <time>2024-03-22T21:16:34Z</time>
      </trkpt>
      <trkpt lat="47.60079" lon="-2.15135">
        <ele>59</ele>
        <time>2024-03-22T21:18:22Z</time>
      </trkpt>
      <trkpt lat="47.60048" lon="-2.15207">
        <ele>54</ele>
        <time>2024-03-22T21:19:39Z</time>
      </trkpt>
      <trkpt lat="47.6004" lon="-2.15245">
        <ele>52</ele>
        <time>2024-03-22T21:20:14Z</time>
      </trkpt>
      <trkpt lat="47.60047" lon="-2.15319">
        <ele>46</ele>
        <time>2024-03-22T21:21:22Z</time>
      </trkpt>
      <trkpt lat="47.60074" lon="-2.15383">
        <ele>43</ele>
        <time>2024-03-22T21:22:30Z</time>
      </trkpt>
      <trkpt lat="47.60087" lon="-2.1543">
        <ele>42</ele>
        <time>2024-03-22T21:23:15Z</time>
      </trkpt>
      <trkpt lat="47.60092" lon="-2.15434">
        <ele>42</ele>
        <time>2024-03-22T21:23:23Z</time>
      </trkpt>
      <trkpt lat="47.60123" lon="-2.15418">
        <ele>46</ele>
        <time>2024-03-22T21:24:07Z</time>
      </trkpt>
      <trkpt lat="47.60178" lon="-2.15378">
        <ele>52</ele>
        <time>2024-03-22T21:25:28Z</time>
      </trkpt>
      <trkpt lat="47.60203" lon="-2.15355">
        <ele>51</ele>
        <time>2024-03-22T21:26:08Z</time>
      </trkpt>
      <trkpt lat="47.60219" lon="-2.15368">
        <ele>49</ele>
        <time>2024-03-22T21:26:32Z</time>
      </trkpt>
      <trkpt lat="47.60254" lon="-2.15438">
        <ele>43</ele>
        <time>2024-03-22T21:27:50Z</time>
      </trkpt>
      <trkpt lat="47.60256" lon="-2.15472">
        <ele>41</ele>
        <time>2024-03-22T21:28:21Z</time>
      </trkpt>
      <trkpt lat="47.60248" lon="-2.15482">
        <ele>42</ele>
        <time>2024-03-22T21:28:35Z</time>
      </trkpt>
      <trkpt lat="47.6024" lon="-2.15509">
        <ele>40</ele>
        <time>2024-03-22T21:29:02Z</time>
      </trkpt>
      <trkpt lat="47.60242" lon="-2.15572">
        <ele>32</ele>
        <time>2024-03-22T21:29:58Z</time>
      </trkpt>
      <trkpt lat="47.60238" lon="-2.15589">
        <ele>29</ele>
        <time>2024-03-22T21:30:15Z</time>
      </trkpt>
      <trkpt lat="47.60201" lon="-2.15693">
        <ele>22</ele>
        <time>2024-03-22T21:32:00Z</time>
      </trkpt>
      <trkpt lat="47.6019" lon="-2.15701">
        <ele>22</ele>
        <time>2024-03-22T21:32:17Z</time>
      </trkpt>
      <trkpt lat="47.60183" lon="-2.1572">
        <ele>21</ele>
        <time>2024-03-22T21:32:36Z</time>
      </trkpt>
      <trkpt lat="47.60189" lon="-2.15783">
        <ele>18</ele>
        <time>2024-03-22T21:33:34Z</time>
      </trkpt>
      <trkpt lat="47.60202" lon="-2.15802">
        <ele>18</ele>
        <time>2024-03-22T21:33:58Z</time>
      </trkpt>
      <trkpt lat="47.60224" lon="-2.1581">
        <ele>18</ele>
        <time>2024-03-22T21:34:28Z</time>
      </trkpt>
      <trkpt lat="47.60271" lon="-2.15813">
        <ele>18</ele>
        <time>2024-03-22T21:35:31Z</time>
      </trkpt>
      <trkpt lat="47.60298" lon="-2.15825">
        <ele>19</ele>
        <time>2024-03-22T21:36:08Z</time>
      </trkpt>
      <trkpt lat="47.60323" lon="-2.15844">
        <ele>19</ele>
        <time>2024-03-22T21:36:46Z</time>
      </trkpt>
      <trkpt lat="47.60346" lon="-2.1585">
        <ele>19</ele>
        <time>2024-03-22T21:37:17Z</time>
      </trkpt>
      <trkpt lat="47.60577" lon="-2.15836">
        <ele>23</ele>
        <time>2024-03-22T21:42:26Z</time>
      </trkpt>
      <trkpt lat="47.60642" lon="-2.15827">
        <ele>27</ele>
        <time>2024-03-22T21:43:53Z</time>
      </trkpt>
      <trkpt lat="47.60687" lon="-2.15814">
        <ele>29</ele>
        <time>2024-03-22T21:44:54Z</time>
      </trkpt>
      <trkpt lat="47.60715" lon="-2.1582">
        <ele>31</ele>
        <time>2024-03-22T21:45:32Z</time>
      </trkpt>
      <trkpt lat="47.60732" lon="-2.15832">
        <ele>33</ele>
        <time>2024-03-22T21:45:57Z</time>
      </trkpt>
      <trkpt lat="47.60748" lon="-2.15835">
        <ele>34</ele>
        <time>2024-03-22T21:46:18Z</time>
      </trkpt>
      <trkpt lat="47.60766" lon="-2.15824">
        <ele>34</ele>
        <time>2024-03-22T21:46:44Z</time>
      </trkpt>
      <trkpt lat="47.60775" lon="-2.15824">
        <ele>34</ele>
        <time>2024-03-22T21:46:56Z</time>
      </trkpt>
      <trkpt lat="47.6082" lon="-2.15797">
        <ele>34</ele>
        <time>2024-03-22T21:48:01Z</time>
      </trkpt>
      <trkpt lat="47.60877" lon="-2.1578">
        <ele>37</ele>
        <time>2024-03-22T21:49:19Z</time>
      </trkpt>
      <trkpt lat="47.60901" lon="-2.15762">
        <ele>38</ele>
        <time>2024-03-22T21:49:55Z</time>
      </trkpt>
      <trkpt lat="47.60917" lon="-2.15765">
        <ele>39</ele>
        <time>2024-03-22T21:50:16Z</time>
      </trkpt>
      <trkpt lat="47.60956" lon="-2.15796">
        <ele>42</ele>
        <time>2024-03-22T21:51:15Z</time>
      </trkpt>
      <trkpt lat="47.60966" lon="-2.1583">
        <ele>43</ele>
        <time>2024-03-22T21:51:49Z</time>
      </trkpt>
      <trkpt lat="47.60968" lon="-2.15852">
        <ele>44</ele>
        <time>2024-03-22T21:52:09Z</time>
      </trkpt>
      <trkpt lat="47.60984" lon="-2.1589">
        <ele>46</ele>
        <time>2024-03-22T21:52:49Z</time>
      </trkpt>
      <trkpt lat="47.60986" lon="-2.15931">
        <ele>47</ele>
        <time>2024-03-22T21:53:26Z</time>
      </trkpt>
      <trkpt lat="47.60979" lon="-2.15977">
        <ele>49</ele>
        <time>2024-03-22T21:54:08Z</time>
      </trkpt>
      <trkpt lat="47.60977" lon="-2.15975">
        <ele>49</ele>
        <time>2024-03-22T21:54:11Z</time>
      </trkpt>
      <trkpt lat="47.60978" lon="-2.15997">
        <ele>51</ele>
        <time>2024-03-22T21:54:31Z</time>
      </trkpt>
      <trkpt lat="47.60983" lon="-2.16004">
        <ele>51</ele>
        <time>2024-03-22T21:54:40Z</time>
      </trkpt>
      <trkpt lat="47.61002" lon="-2.16009">
        <ele>52</ele>
        <time>2024-03-22T21:55:06Z</time>
      </trkpt>
      <trkpt lat="47.61009" lon="-2.16017">
        <ele>53</ele>
        <time>2024-03-22T21:55:18Z</time>
      </trkpt>
      <trkpt lat="47.61004" lon="-2.16011">
        <ele>53</ele>
        <time>2024-03-22T21:55:27Z</time>
      </trkpt>
      <trkpt lat="47.61005" lon="-2.16014">
        <ele>53</ele>
        <time>2024-03-22T21:55:30Z</time>
      </trkpt>
      <trkpt lat="47.61008" lon="-2.1601">
        <ele>53</ele>
        <time>2024-03-22T21:55:35Z</time>
      </trkpt>
      <trkpt lat="47.61001" lon="-2.16009">
        <ele>52</ele>
        <time>2024-03-22T21:55:44Z</time>
      </trkpt>
      <trkpt lat="47.61008" lon="-2.16019">
        <ele>53</ele>
        <time>2024-03-22T21:55:57Z</time>
      </trkpt>
      <trkpt lat="47.6101" lon="-2.1601">
        <ele>53</ele>
        <time>2024-03-22T21:56:06Z</time>
      </trkpt>
      <trkpt lat="47.61011" lon="-2.16014">
        <ele>53</ele>
        <time>2024-03-22T21:56:10Z</time>
      </trkpt>
      <trkpt lat="47.61015" lon="-2.16011">
        <ele>53</ele>
        <time>2024-03-22T21:56:16Z</time>
      </trkpt>
      <trkpt lat="47.61006" lon="-2.15999">
        <ele>52</ele>
        <time>2024-03-22T21:56:32Z</time>
      </trkpt>
      <trkpt lat="47.6099" lon="-2.16019">
        <ele>52</ele>
        <time>2024-03-22T21:57:00Z</time>
      </trkpt>
      <trkpt lat="47.60983" lon="-2.1604">
        <ele>53</ele>
        <time>2024-03-22T21:57:21Z</time>
      </trkpt>
      <trkpt lat="47.60982" lon="-2.16071">
        <ele>54</ele>
        <time>2024-03-22T21:57:49Z</time>
      </trkpt>
      <trkpt lat="47.60974" lon="-2.16104">
        <ele>53</ele>
        <time>2024-03-22T21:58:20Z</time>
      </trkpt>
      <trkpt lat="47.6098" lon="-2.16169">
        <ele>53</ele>
        <time>2024-03-22T21:59:19Z</time>
      </trkpt>
      <trkpt lat="47.60979" lon="-2.16232">
        <ele>53</ele>
        <time>2024-03-22T22:00:16Z</time>
      </trkpt>
      <trkpt lat="47.60975" lon="-2.16269">
        <ele>54</ele>
        <time>2024-03-22T22:00:50Z</time>
      </trkpt>
      <trkpt lat="47.60961" lon="-2.16323">
        <ele>55</ele>
        <time>2024-03-22T22:01:42Z</time>
      </trkpt>
      <trkpt lat="47.60963" lon="-2.16332">
        <ele>56</ele>
        <time>2024-03-22T22:01:50Z</time>
      </trkpt>
      <trkpt lat="47.60969" lon="-2.16342">
        <ele>56</ele>
        <time>2024-03-22T22:02:02Z</time>
      </trkpt>
      <trkpt lat="47.6103" lon="-2.1637">
        <ele>61</ele>
        <time>2024-03-22T22:03:28Z</time>
      </trkpt>
      <trkpt lat="47.61141" lon="-2.16393">
        <ele>67</ele>
        <time>2024-03-22T22:05:57Z</time>
      </trkpt>
      <trkpt lat="47.61186" lon="-2.16397">
        <ele>70</ele>
        <time>2024-03-22T22:06:57Z</time>
      </trkpt>
      <trkpt lat="47.61205" lon="-2.16407">
        <ele>73</ele>
        <time>2024-03-22T22:07:24Z</time>
      </trkpt>
      <trkpt lat="47.61256" lon="-2.16415">
        <ele>79</ele>
        <time>2024-03-22T22:08:33Z</time>
      </trkpt>
      <trkpt lat="47.61301" lon="-2.16418">
        <ele>78</ele>
        <time>2024-03-22T22:09:33Z</time>
      </trkpt>
      <trkpt lat="47.61308" lon="-2.1641">
        <ele>78</ele>
        <time>2024-03-22T22:09:45Z</time>
      </trkpt>
      <trkpt lat="47.61298" lon="-2.16283">
        <ele>77</ele>
        <time>2024-03-22T22:11:40Z</time>
      </trkpt>
      <trkpt lat="47.61308" lon="-2.16103">
        <ele>74</ele>
        <time>2024-03-22T22:14:22Z</time>
      </trkpt>
      <trkpt lat="47.61317" lon="-2.16105">
        <ele>74</ele>
        <time>2024-03-22T22:14:34Z</time>
      </trkpt>
      <trkpt lat="47.61376" lon="-2.16165">
        <ele>77</ele>
        <time>2024-03-22T22:16:10Z</time>
      </trkpt>
      <trkpt lat="47.61408" lon="-2.16192">
        <ele>78</ele>
        <time>2024-03-22T22:16:59Z</time>
      </trkpt>
      <trkpt lat="47.61421" lon="-2.16198">
        <ele>79</ele>
        <time>2024-03-22T22:17:17Z</time>
      </trkpt>
      <trkpt lat="47.61454" lon="-2.16237">
        <ele>80</ele>
        <time>2024-03-22T22:18:13Z</time>
      </trkpt>
      <trkpt lat="47.61502" lon="-2.16281">
        <ele>80</ele>
        <time>2024-03-22T22:19:29Z</time>
      </trkpt>
      <trkpt lat="47.61511" lon="-2.16287">
        <ele>80</ele>
        <time>2024-03-22T22:19:42Z</time>
      </trkpt>
      <trkpt lat="47.61534" lon="-2.16287">
        <ele>78</ele>
        <time>2024-03-22T22:20:12Z</time>
      </trkpt>
      <trkpt lat="47.61558" lon="-2.16276">
        <ele>76</ele>
        <time>2024-03-22T22:20:46Z</time>
      </trkpt>
      <trkpt lat="47.6157" lon="-2.16251">
        <ele>75</ele>
        <time>2024-03-22T22:21:14Z</time>
      </trkpt>
      <trkpt lat="47.61602" lon="-2.16055">
        <ele>75</ele>
        <time>2024-03-22T22:24:15Z</time>
      </trkpt>
      <trkpt lat="47.61611" lon="-2.16018">
        <ele>75</ele>
        <time>2024-03-22T22:24:50Z</time>
      </trkpt>
      <trkpt lat="47.61617" lon="-2.16007">
        <ele>75</ele>
        <time>2024-03-22T22:25:03Z</time>
      </trkpt>
      <trkpt lat="47.61626" lon="-2.16005">
        <ele>75</ele>
        <time>2024-03-22T22:25:15Z</time>
      </trkpt>
      <trkpt lat="47.6176" lon="-2.16092">
        <ele>71</ele>
        <time>2024-03-22T22:28:30Z</time>
      </trkpt>
      <trkpt lat="47.61781" lon="-2.16109">
        <ele>72</ele>
        <time>2024-03-22T22:29:02Z</time>
      </trkpt>
      <trkpt lat="47.61806" lon="-2.16137">
        <ele>74</ele>
        <time>2024-03-22T22:29:44Z</time>
      </trkpt>
      <trkpt lat="47.61833" lon="-2.16191">
        <ele>77</ele>
        <time>2024-03-22T22:30:45Z</time>
      </trkpt>
      <trkpt lat="47.61845" lon="-2.16226">
        <ele>77</ele>
        <time>2024-03-22T22:31:20Z</time>
      </trkpt>
      <trkpt lat="47.61879" lon="-2.16292">
        <ele>77</ele>
        <time>2024-03-22T22:32:35Z</time>
      </trkpt>
      <trkpt lat="47.61891" lon="-2.16328">
        <ele>76</ele>
        <time>2024-03-22T22:33:11Z</time>
      </trkpt>
      <trkpt lat="47.6192" lon="-2.16453">
        <ele>72</ele>
        <time>2024-03-22T22:35:10Z</time>
      </trkpt>
      <trkpt lat="47.6193" lon="-2.1648">
        <ele>72</ele>
        <time>2024-03-22T22:35:37Z</time>
      </trkpt>
      <trkpt lat="47.61946" lon="-2.16509">
        <ele>72</ele>
        <time>2024-03-22T22:36:11Z</time>
      </trkpt>
      <trkpt lat="47.61965" lon="-2.16533">
        <ele>73</ele>
        <time>2024-03-22T22:36:44Z</time>
      </trkpt>
      <trkpt lat="47.61989" lon="-2.16554">
        <ele>74</ele>
        <time>2024-03-22T22:37:22Z</time>
      </trkpt>
      <trkpt lat="47.62014" lon="-2.16569">
        <ele>75</ele>
        <time>2024-03-22T22:37:58Z</time>
      </trkpt>
      <trkpt lat="47.6205" lon="-2.16583">
        <ele>76</ele>
        <time>2024-03-22T22:38:47Z</time>
      </trkpt>
      <trkpt lat="47.62119" lon="-2.16619">
        <ele>75</ele>
        <time>2024-03-22T22:40:25Z</time>
      </trkpt>
      <trkpt lat="47.62134" lon="-2.16618">
        <ele>75</ele>
        <time>2024-03-22T22:40:45Z</time>
      </trkpt>
      <trkpt lat="47.62157" lon="-2.16594">
        <ele>73</ele>
        <time>2024-03-22T22:41:22Z</time>
      </trkpt>
      <trkpt lat="47.62231" lon="-2.16486">
        <ele>73</ele>
        <time>2024-03-22T22:43:41Z</time>
      </trkpt>
      <trkpt lat="47.62293" lon="-2.16415">
        <ele>70</ele>
        <time>2024-03-22T22:45:25Z</time>
      </trkpt>
      <trkpt lat="47.62319" lon="-2.16405">
        <ele>70</ele>
        <time>2024-03-22T22:46:01Z</time>
      </trkpt>
      <trkpt lat="47.62347" lon="-2.16407">
        <ele>69</ele>
        <time>2024-03-22T22:46:39Z</time>
      </trkpt>
      <trkpt lat="47.6237" lon="-2.16416">
        <ele>69</ele>
        <time>2024-03-22T22:47:10Z</time>
      </trkpt>
      <trkpt lat="47.62388" lon="-2.16415">
        <ele>69</ele>
        <time>2024-03-22T22:47:34Z</time>
      </trkpt>
      <trkpt lat="47.6249" lon="-2.16366">
        <ele>67</ele>
        <time>2024-03-22T22:49:58Z</time>
      </trkpt>
      <trkpt lat="47.62528" lon="-2.16342">
        <ele>67</ele>
        <time>2024-03-22T22:50:53Z</time>
      </trkpt>
      <trkpt lat="47.62522" lon="-2.16334">
        <ele>67</ele>
        <time>2024-03-22T22:51:03Z</time>
      </trkpt>
      <trkpt lat="47.62439" lon="-2.16329">
        <ele>69</ele>
        <time>2024-03-22T22:52:54Z</time>
      </trkpt>
      <trkpt lat="47.62416" lon="-2.16331">
        <ele>69</ele>
        <time>2024-03-22T22:53:25Z</time>
      </trkpt>
      <trkpt lat="47.62407" lon="-2.16324">
        <ele>69</ele>
        <time>2024-03-22T22:53:39Z</time>
      </trkpt>
      <trkpt lat="47.6231" lon="-2.1618">
        <ele>72</ele>
        <time>2024-03-22T22:56:42Z</time>
      </trkpt>
      <trkpt lat="47.62278" lon="-2.16146">
        <ele>72</ele>
        <time>2024-03-22T22:57:34Z</time>
      </trkpt>
      <trkpt lat="47.62262" lon="-2.16115">
        <ele>72</ele>
        <time>2024-03-22T22:58:09Z</time>
      </trkpt>
      <trkpt lat="47.62258" lon="-2.16111">
        <ele>72</ele>
        <time>2024-03-22T22:58:16Z</time>
      </trkpt>
      <trkpt lat="47.62258" lon="-2.16116">
        <ele>72</ele>
        <time>2024-03-22T22:58:20Z</time>
      </trkpt>
      <trkpt lat="47.62256" lon="-2.16107">
        <ele>73</ele>
        <time>2024-03-22T22:58:29Z</time>
      </trkpt>
      <trkpt lat="47.62244" lon="-2.16095">
        <ele>73</ele>
        <time>2024-03-22T22:58:48Z</time>
      </trkpt>
      <trkpt lat="47.62211" lon="-2.16043">
        <ele>71</ele>
        <time>2024-03-22T22:59:52Z</time>
      </trkpt>
      <trkpt lat="47.6219" lon="-2.16025">
        <ele>71</ele>
        <time>2024-03-22T23:00:25Z</time>
      </trkpt>
      <trkpt lat="47.6217" lon="-2.15991">
        <ele>71</ele>
        <time>2024-03-22T23:01:05Z</time>
      </trkpt>
      <trkpt lat="47.62149" lon="-2.15967">
        <ele>73</ele>
        <time>2024-03-22T23:01:41Z</time>
      </trkpt>
      <trkpt lat="47.62096" lon="-2.15889">
        <ele>76</ele>
        <time>2024-03-22T23:03:20Z</time>
      </trkpt>
      <trkpt lat="47.62072" lon="-2.15857">
        <ele>75</ele>
        <time>2024-03-22T23:04:03Z</time>
      </trkpt>
      <trkpt lat="47.62056" lon="-2.15844">
        <ele>75</ele>
        <time>2024-03-22T23:04:28Z</time>
      </trkpt>
      <trkpt lat="47.62037" lon="-2.15803">
        <ele>75</ele>
        <time>2024-03-22T23:05:12Z</time>
      </trkpt>
      <trkpt lat="47.62015" lon="-2.1577">
        <ele>76</ele>
        <time>2024-03-22T23:05:54Z</time>
      </trkpt>
      <trkpt lat="47.62012" lon="-2.15756">
        <ele>76</ele>
        <time>2024-03-22T23:06:07Z</time>
      </trkpt>
      <trkpt lat="47.61981" lon="-2.15709">
        <ele>76</ele>
        <time>2024-03-22T23:07:07Z</time>
      </trkpt>
      <trkpt lat="47.61981" lon="-2.1568">
        <ele>76</ele>
        <time>2024-03-22T23:07:33Z</time>
      </trkpt>
      <trkpt lat="47.61994" lon="-2.15622">
        <ele>75</ele>
        <time>2024-03-22T23:08:28Z</time>
      </trkpt>
      <trkpt lat="47.62034" lon="-2.15485">
        <ele>76</ele>
        <time>2024-03-22T23:10:42Z</time>
      </trkpt>
      <trkpt lat="47.62062" lon="-2.15425">
        <ele>72</ele>
        <time>2024-03-22T23:11:48Z</time>
      </trkpt>
      <trkpt lat="47.62068" lon="-2.15402">
        <ele>71</ele>
        <time>2024-03-22T23:12:10Z</time>
      </trkpt>
      <trkpt lat="47.62063" lon="-2.1538">
        <ele>71</ele>
        <time>2024-03-22T23:12:31Z</time>
      </trkpt>
      <trkpt lat="47.62047" lon="-2.15344">
        <ele>73</ele>
        <time>2024-03-22T23:13:09Z</time>
      </trkpt>
      <trkpt lat="47.62012" lon="-2.15296">
        <ele>76</ele>
        <time>2024-03-22T23:14:13Z</time>
      </trkpt>
      <trkpt lat="47.61888" lon="-2.15104">
        <ele>78</ele>
        <time>2024-03-22T23:18:12Z</time>
      </trkpt>
      <trkpt lat="47.61898" lon="-2.15075">
        <ele>76</ele>
        <time>2024-03-22T23:18:41Z</time>
      </trkpt>
      <trkpt lat="47.61965" lon="-2.14774">
        <ele>73</ele>
        <time>2024-03-22T23:23:27Z</time>
      </trkpt>
      <trkpt lat="47.61962" lon="-2.14638">
        <ele>72</ele>
        <time>2024-03-22T23:25:29Z</time>
      </trkpt>
      <trkpt lat="47.61972" lon="-2.14561">
        <ele>70</ele>
        <time>2024-03-22T23:26:40Z</time>
      </trkpt>
      <trkpt lat="47.61977" lon="-2.14475">
        <ele>67</ele>
        <time>2024-03-22T23:27:57Z</time>
      </trkpt>
      <trkpt lat="47.62012" lon="-2.14234">
        <ele>52</ele>
        <time>2024-03-22T23:31:39Z</time>
      </trkpt>
      <trkpt lat="47.6201" lon="-2.14191">
        <ele>50</ele>
        <time>2024-03-22T23:32:18Z</time>
      </trkpt>
      <trkpt lat="47.61997" lon="-2.14141">
        <ele>47</ele>
        <time>2024-03-22T23:33:06Z</time>
      </trkpt>
      <trkpt lat="47.62002" lon="-2.14092">
        <ele>45</ele>
        <time>2024-03-22T23:33:51Z</time>
      </trkpt>
      <trkpt lat="47.62002" lon="-2.14041">
        <ele>44</ele>
        <time>2024-03-22T23:34:36Z</time>
      </trkpt>
      <trkpt lat="47.62017" lon="-2.13957">
        <ele>42</ele>
        <time>2024-03-22T23:35:55Z</time>
      </trkpt>
      <trkpt lat="47.62025" lon="-2.13886">
        <ele>42</ele>
        <time>2024-03-22T23:36:59Z</time>
      </trkpt>
      <trkpt lat="47.62025" lon="-2.13844">
        <ele>42</ele>
        <time>2024-03-22T23:37:37Z</time>
      </trkpt>
      <trkpt lat="47.62039" lon="-2.1373">
        <ele>41</ele>
        <time>2024-03-22T23:39:21Z</time>
      </trkpt>
      <trkpt lat="47.62071" lon="-2.13561">
        <ele>36</ele>
        <time>2024-03-22T23:41:59Z</time>
      </trkpt>
      <trkpt lat="47.62056" lon="-2.1343">
        <ele>38</ele>
        <time>2024-03-22T23:43:59Z</time>
      </trkpt>
      <trkpt lat="47.62054" lon="-2.13376">
        <ele>40</ele>
        <time>2024-03-22T23:44:47Z</time>
      </trkpt>
      <trkpt lat="47.62047" lon="-2.1334">
        <ele>41</ele>
        <time>2024-03-22T23:45:21Z</time>
      </trkpt>
      <trkpt lat="47.62045" lon="-2.13289">
        <ele>44</ele>
        <time>2024-03-22T23:46:07Z</time>
      </trkpt>
      <trkpt lat="47.62033" lon="-2.13225">
        <ele>46</ele>
        <time>2024-03-22T23:47:07Z</time>
      </trkpt>
      <trkpt lat="47.62035" lon="-2.13181">
        <ele>47</ele>
        <time>2024-03-22T23:47:46Z</time>
      </trkpt>
      <trkpt lat="47.62054" lon="-2.13027">
        <ele>43</ele>
        <time>2024-03-22T23:50:07Z</time>
      </trkpt>
      <trkpt lat="47.62074" lon="-2.1292">
        <ele>40</ele>
        <time>2024-03-22T23:51:47Z</time>
      </trkpt>
      <trkpt lat="47.62095" lon="-2.12846">
        <ele>37</ele>
        <time>2024-03-22T23:52:59Z</time>
      </trkpt>
      <trkpt lat="47.62104" lon="-2.12759">
        <ele>33</ele>
        <time>2024-03-22T23:54:19Z</time>
      </trkpt>
      <trkpt lat="47.62106" lon="-2.12403">
        <ele>32</ele>
        <time>2024-03-22T23:59:39Z</time>
      </trkpt>
      <trkpt lat="47.62094" lon="-2.12391">
        <ele>33</ele>
        <time>2024-03-22T23:59:58Z</time>
      </trkpt>
      <trkpt lat="47.62015" lon="-2.124">
        <ele>38</ele>
        <time>2024-03-23T00:01:44Z</time>
      </trkpt>
      <trkpt lat="47.61947" lon="-2.12413">
        <ele>48</ele>
        <time>2024-03-23T00:03:15Z</time>
      </trkpt>
      <trkpt lat="47.61928" lon="-2.12412">
        <ele>51</ele>
        <time>2024-03-23T00:03:41Z</time>
      </trkpt>
      <trkpt lat="47.61915" lon="-2.12403">
        <ele>54</ele>
        <time>2024-03-23T00:04:00Z</time>
      </trkpt>
      <trkpt lat="47.61911" lon="-2.1238">
        <ele>55</ele>
        <time>2024-03-23T00:04:21Z</time>
      </trkpt>
      <trkpt lat="47.61918" lon="-2.12257">
        <ele>58</ele>
        <time>2024-03-23T00:06:12Z</time>
      </trkpt>
      <trkpt lat="47.61924" lon="-2.12223">
        <ele>57</ele>
        <time>2024-03-23T00:06:44Z</time>
      </trkpt>
      <trkpt lat="47.61931" lon="-2.12207">
        <ele>55</ele>
        <time>2024-03-23T00:07:01Z</time>
      </trkpt>
      <trkpt lat="47.61937" lon="-2.12129">
        <ele>54</ele>
        <time>2024-03-23T00:08:12Z</time>
      </trkpt>
      <trkpt lat="47.61945" lon="-2.12107">
        <ele>53</ele>
        <time>2024-03-23T00:08:34Z</time>
      </trkpt>
      <trkpt lat="47.61949" lon="-2.12038">
        <ele>51</ele>
        <time>2024-03-23T00:09:36Z</time>
      </trkpt>
      <trkpt lat="47.61962" lon="-2.12006">
        <ele>47</ele>
        <time>2024-03-23T00:10:10Z</time>
      </trkpt>
      <trkpt lat="47.61957" lon="-2.11984">
        <ele>47</ele>
        <time>2024-03-23T00:10:31Z</time>
      </trkpt>
      <trkpt lat="47.61919" lon="-2.1192">
        <ele>47</ele>
        <time>2024-03-23T00:11:48Z</time>
      </trkpt>
      <trkpt lat="47.61916" lon="-2.11885">
        <ele>47</ele>
        <time>2024-03-23T00:12:19Z</time>
      </trkpt>
      <trkpt lat="47.61919" lon="-2.11872">
        <ele>46</ele>
        <time>2024-03-23T00:12:32Z</time>
      </trkpt>
      <trkpt lat="47.61934" lon="-2.11848">
        <ele>44</ele>
        <time>2024-03-23T00:13:01Z</time>
      </trkpt>
      <trkpt lat="47.61952" lon="-2.11781">
        <ele>39</ele>
        <time>2024-03-23T00:14:06Z</time>
      </trkpt>
      <trkpt lat="47.61965" lon="-2.11755">
        <ele>36</ele>
        <time>2024-03-23T00:14:35Z</time>
      </trkpt>
      <trkpt lat="47.61987" lon="-2.11747">
        <ele>34</ele>
        <time>2024-03-23T00:15:05Z</time>
      </trkpt>
      <trkpt lat="47.62001" lon="-2.11729">
        <ele>31</ele>
        <time>2024-03-23T00:15:30Z</time>
      </trkpt>
      <trkpt lat="47.62062" lon="-2.11693">
        <ele>25</ele>
        <time>2024-03-23T00:16:58Z</time>
      </trkpt>
      <trkpt lat="47.62131" lon="-2.11673">
        <ele>22</ele>
        <time>2024-03-23T00:18:31Z</time>
      </trkpt>
      <trkpt lat="47.62148" lon="-2.11658">
        <ele>22</ele>
        <time>2024-03-23T00:18:58Z</time>
      </trkpt>
      <trkpt lat="47.62155" lon="-2.11644">
        <ele>22</ele>
        <time>2024-03-23T00:19:14Z</time>
      </trkpt>
      <trkpt lat="47.62152" lon="-2.11623">
        <ele>22</ele>
        <time>2024-03-23T00:19:33Z</time>
      </trkpt>
      <trkpt lat="47.62104" lon="-2.11495">
        <ele>19</ele>
        <time>2024-03-23T00:21:45Z</time>
      </trkpt>
      <trkpt lat="47.6209" lon="-2.11443">
        <ele>16</ele>
        <time>2024-03-23T00:22:35Z</time>
      </trkpt>
      <trkpt lat="47.62083" lon="-2.11434">
        <ele>16</ele>
        <time>2024-03-23T00:22:47Z</time>
      </trkpt>
      <trkpt lat="47.62067" lon="-2.11435">
        <ele>16</ele>
        <time>2024-03-23T00:23:09Z</time>
      </trkpt>
      <trkpt lat="47.62061" lon="-2.1143">
        <ele>15</ele>
        <time>2024-03-23T00:23:18Z</time>
      </trkpt>
      <trkpt lat="47.62055" lon="-2.114">
        <ele>14</ele>
        <time>2024-03-23T00:23:46Z</time>
      </trkpt>
      <trkpt lat="47.62055" lon="-2.1135">
        <ele>13</ele>
        <time>2024-03-23T00:24:31Z</time>
      </trkpt>
      <trkpt lat="47.62062" lon="-2.11329">
        <ele>13</ele>
        <time>2024-03-23T00:24:52Z</time>
      </trkpt>
      <trkpt lat="47.62058" lon="-2.11306">
        <ele>12</ele>
        <time>2024-03-23T00:25:13Z</time>
      </trkpt>
      <trkpt lat="47.62049" lon="-2.11292">
        <ele>12</ele>
        <time>2024-03-23T00:25:31Z</time>
      </trkpt>
      <trkpt lat="47.62025" lon="-2.11283">
        <ele>12</ele>
        <time>2024-03-23T00:26:04Z</time>
      </trkpt>
      <trkpt lat="47.62015" lon="-2.11283">
        <ele>12</ele>
        <time>2024-03-23T00:26:17Z</time>
      </trkpt>
      <trkpt lat="47.62009" lon="-2.11278">
        <ele>12</ele>
        <time>2024-03-23T00:26:26Z</time>
      </trkpt>
      <trkpt lat="47.61999" lon="-2.11214">
        <ele>10</ele>
        <time>2024-03-23T00:27:26Z</time>
      </trkpt>
      <trkpt lat="47.6199" lon="-2.11207">
        <ele>10</ele>
        <time>2024-03-23T00:27:39Z</time>
      </trkpt>
      <trkpt lat="47.61965" lon="-2.11204">
        <ele>10</ele>
        <time>2024-03-23T00:28:13Z</time>
      </trkpt>
      <trkpt lat="47.61943" lon="-2.11183">
        <ele>9</ele>
        <time>2024-03-23T00:28:47Z</time>
      </trkpt>
      <trkpt lat="47.6193" lon="-2.11159">
        <ele>9</ele>
        <time>2024-03-23T00:29:15Z</time>
      </trkpt>
      <trkpt lat="47.61935" lon="-2.11132">
        <ele>8</ele>
        <time>2024-03-23T00:29:40Z</time>
      </trkpt>
      <trkpt lat="47.61925" lon="-2.11162">
        <ele>9</ele>
        <time>2024-03-23T00:30:10Z</time>
      </trkpt>
      <trkpt lat="47.61923" lon="-2.11222">
        <ele>10</ele>
        <time>2024-03-23T00:31:04Z</time>
      </trkpt>
      <trkpt lat="47.61911" lon="-2.1125">
        <ele>10</ele>
        <time>2024-03-23T00:31:34Z</time>
      </trkpt>
      <trkpt lat="47.61905" lon="-2.11253">
        <ele>10</ele>
        <time>2024-03-23T00:31:43Z</time>
      </trkpt>
      <trkpt lat="47.61832" lon="-2.11252">
        <ele>10</ele>
        <time>2024-03-23T00:33:20Z</time>
      </trkpt>
      <trkpt lat="47.61754" lon="-2.11223">
        <ele>10</ele>
        <time>2024-03-23T00:35:07Z</time>
      </trkpt>
      <trkpt lat="47.61721" lon="-2.11218">
        <ele>10</ele>
        <time>2024-03-23T00:35:52Z</time>
      </trkpt>
      <trkpt lat="47.61689" lon="-2.11217">
        <ele>10</ele>
        <time>2024-03-23T00:36:34Z</time>
      </trkpt>
      <trkpt lat="47.61653" lon="-2.11225">
        <ele>10</ele>
        <time>2024-03-23T00:37:23Z</time>
      </trkpt>
      <trkpt lat="47.61589" lon="-2.11223">
        <ele>10</ele>
        <time>2024-03-23T00:38:48Z</time>
      </trkpt>
      <trkpt lat="47.61571" lon="-2.1123">
        <ele>10</ele>
        <time>2024-03-23T00:39:13Z</time>
      </trkpt>
      <trkpt lat="47.61547" lon="-2.11214">
        <ele>9</ele>
        <time>2024-03-23T00:39:48Z</time>
      </trkpt>
      <trkpt lat="47.61523" lon="-2.11211">
        <ele>9</ele>
        <time>2024-03-23T00:40:21Z</time>
      </trkpt>
      <trkpt lat="47.61506" lon="-2.11188">
        <ele>8</ele>
        <time>2024-03-23T00:40:51Z</time>
      </trkpt>
      <trkpt lat="47.615" lon="-2.11186">
        <ele>8</ele>
        <time>2024-03-23T00:40:59Z</time>
      </trkpt>
      <trkpt lat="47.61478" lon="-2.11199">
        <ele>8</ele>
        <time>2024-03-23T00:41:31Z</time>
      </trkpt>
      <trkpt lat="47.61371" lon="-2.11225">
        <ele>9</ele>
        <time>2024-03-23T00:43:56Z</time>
      </trkpt>
      <trkpt lat="47.61357" lon="-2.11237">
        <ele>9</ele>
        <time>2024-03-23T00:44:17Z</time>
      </trkpt>
      <trkpt lat="47.61315" lon="-2.11289">
        <ele>10</ele>
        <time>2024-03-23T00:45:30Z</time>
      </trkpt>
      <trkpt lat="47.61275" lon="-2.11319">
        <ele>10</ele>
        <time>2024-03-23T00:46:30Z</time>
      </trkpt>
      <trkpt lat="47.6122" lon="-2.11306">
        <ele>10</ele>
        <time>2024-03-23T00:47:44Z</time>
      </trkpt>
      <trkpt lat="47.61148" lon="-2.11278">
        <ele>9</ele>
        <time>2024-03-23T00:49:24Z</time>
      </trkpt>
      <trkpt lat="47.61111" lon="-2.1128">
        <ele>9</ele>
        <time>2024-03-23T00:50:13Z</time>
      </trkpt>
      <trkpt lat="47.61088" lon="-2.11319">
        <ele>9</ele>
        <time>2024-03-23T00:51:00Z</time>
      </trkpt>
      <trkpt lat="47.61069" lon="-2.11391">
        <ele>11</ele>
        <time>2024-03-23T00:52:09Z</time>
      </trkpt>
      <trkpt lat="47.61057" lon="-2.11386">
        <ele>11</ele>
        <time>2024-03-23T00:52:26Z</time>
      </trkpt>
      <trkpt lat="47.61039" lon="-2.11361">
        <ele>11</ele>
        <time>2024-03-23T00:52:59Z</time>
      </trkpt>
      <trkpt lat="47.61027" lon="-2.11338">
        <ele>10</ele>
        <time>2024-03-23T00:53:25Z</time>
      </trkpt>
      <trkpt lat="47.6101" lon="-2.11281">
        <ele>10</ele>
        <time>2024-03-23T00:54:21Z</time>
      </trkpt>
      <trkpt lat="47.61002" lon="-2.11266">
        <ele>10</ele>
        <time>2024-03-23T00:54:38Z</time>
      </trkpt>
      <trkpt lat="47.60992" lon="-2.11264">
        <ele>10</ele>
        <time>2024-03-23T00:54:52Z</time>
      </trkpt>
      <trkpt lat="47.6092" lon="-2.11348">
        <ele>14</ele>
        <time>2024-03-23T00:56:54Z</time>
      </trkpt>
      <trkpt lat="47.60818" lon="-2.11401">
        <ele>20</ele>
        <time>2024-03-23T00:59:18Z</time>
      </trkpt>
      <trkpt lat="47.60793" lon="-2.11421">
        <ele>22</ele>
        <time>2024-03-23T00:59:56Z</time>
      </trkpt>
      <trkpt lat="47.60754" lon="-2.11474">
        <ele>27</ele>
        <time>2024-03-23T01:01:07Z</time>
      </trkpt>
      <trkpt lat="47.60726" lon="-2.11502">
        <ele>31</ele>
        <time>2024-03-23T01:01:52Z</time>
      </trkpt>
      <trkpt lat="47.6072" lon="-2.11498">
        <ele>31</ele>
        <time>2024-03-23T01:02:01Z</time>
      </trkpt>
      <trkpt lat="47.60707" lon="-2.11471">
        <ele>30</ele>
        <time>2024-03-23T01:02:30Z</time>
      </trkpt>
      <trkpt lat="47.60697" lon="-2.11431">
        <ele>28</ele>
        <time>2024-03-23T01:03:09Z</time>
      </trkpt>
      <trkpt lat="47.60625" lon="-2.11227">
        <ele>21</ele>
        <time>2024-03-23T01:06:36Z</time>
      </trkpt>
      <trkpt lat="47.60576" lon="-2.11138">
        <ele>16</ele>
        <time>2024-03-23T01:08:19Z</time>
      </trkpt>
      <trkpt lat="47.60554" lon="-2.11078">
        <ele>14</ele>
        <time>2024-03-23T01:09:21Z</time>
      </trkpt>
      <trkpt lat="47.60508" lon="-2.10987">
        <ele>13</ele>
        <time>2024-03-23T01:11:03Z</time>
      </trkpt>
      <trkpt lat="47.60469" lon="-2.10944">
        <ele>12</ele>
        <time>2024-03-23T01:12:08Z</time>
      </trkpt>
      <trkpt lat="47.60447" lon="-2.10927">
        <ele>12</ele>
        <time>2024-03-23T01:12:41Z</time>
      </trkpt>
      <trkpt lat="47.6039" lon="-2.10863">
        <ele>12</ele>
        <time>2024-03-23T01:14:17Z</time>
      </trkpt>
      <trkpt lat="47.60373" lon="-2.10851">
        <ele>14</ele>
        <time>2024-03-23T01:14:42Z</time>
      </trkpt>
      <trkpt lat="47.60335" lon="-2.10852">
        <ele>18</ele>
        <time>2024-03-23T01:15:32Z</time>
      </trkpt>
      <trkpt lat="47.60283" lon="-2.10832">
        <ele>25</ele>
        <time>2024-03-23T01:16:44Z</time>
      </trkpt>
      <trkpt lat="47.60226" lon="-2.10786">
        <ele>26</ele>
        <time>2024-03-23T01:18:11Z</time>
      </trkpt>
      <trkpt lat="47.60201" lon="-2.10774">
        <ele>26</ele>
        <time>2024-03-23T01:18:46Z</time>
      </trkpt>
      <trkpt lat="47.60124" lon="-2.10706">
        <ele>22</ele>
        <time>2024-03-23T01:20:45Z</time>
      </trkpt>
      <trkpt lat="47.60094" lon="-2.10647">
        <ele>18</ele>
        <time>2024-03-23T01:21:52Z</time>
      </trkpt>
      <trkpt lat="47.60065" lon="-2.10614">
        <ele>17</ele>
        <time>2024-03-23T01:22:41Z</time>
      </trkpt>
      <trkpt lat="47.60053" lon="-2.10593">
        <ele>15</ele>
        <time>2024-03-23T01:23:05Z</time>
      </trkpt>
      <trkpt lat="47.6001" lon="-2.10547">
        <ele>14</ele>
        <time>2024-03-23T01:24:16Z</time>
      </trkpt>
      <trkpt lat="47.59978" lon="-2.10499">
        <ele>14</ele>
        <time>2024-03-23T01:25:17Z</time>
      </trkpt>
      <trkpt lat="47.5997" lon="-2.10483">
        <ele>13</ele>
        <time>2024-03-23T01:25:35Z</time>
      </trkpt>
      <trkpt lat="47.5996" lon="-2.10445">
        <ele>12</ele>
        <time>2024-03-23T01:26:12Z</time>
      </trkpt>
      <trkpt lat="47.5995" lon="-2.10388">
        <ele>12</ele>
        <time>2024-03-23T01:27:05Z</time>
      </trkpt>
      <trkpt lat="47.59961" lon="-2.1033">
        <ele>10</ele>
        <time>2024-03-23T01:27:59Z</time>
      </trkpt>
      <trkpt lat="47.59971" lon="-2.10205">
        <ele>8</ele>
        <time>2024-03-23T01:29:52Z</time>
      </trkpt>
      <trkpt lat="47.5996" lon="-2.10151">
        <ele>8</ele>
        <time>2024-03-23T01:30:43Z</time>
      </trkpt>
      <trkpt lat="47.59948" lon="-2.10028">
        <ele>9</ele>
        <time>2024-03-23T01:32:35Z</time>
      </trkpt>
      <trkpt lat="47.59954" lon="-2.0996">
        <ele>11</ele>
        <time>2024-03-23T01:33:36Z</time>
      </trkpt>
      <trkpt lat="47.59952" lon="-2.09954">
        <ele>11</ele>
        <time>2024-03-23T01:33:42Z</time>
      </trkpt>
      <trkpt lat="47.59952" lon="-2.0996">
        <ele>11</ele>
        <time>2024-03-23T01:33:48Z</time>
      </trkpt>
      <trkpt lat="47.59942" lon="-2.09964">
        <ele>13</ele>
        <time>2024-03-23T01:34:02Z</time>
      </trkpt>
      <trkpt lat="47.59907" lon="-2.10001">
        <ele>14</ele>
        <time>2024-03-23T01:34:59Z</time>
      </trkpt>
      <trkpt lat="47.59887" lon="-2.0997">
        <ele>14</ele>
        <time>2024-03-23T01:35:37Z</time>
      </trkpt>
      <trkpt lat="47.59882" lon="-2.09934">
        <ele>15</ele>
        <time>2024-03-23T01:36:11Z</time>
      </trkpt>
      <trkpt lat="47.59889" lon="-2.09906">
        <ele>15</ele>
        <time>2024-03-23T01:36:37Z</time>
      </trkpt>
      <trkpt lat="47.59878" lon="-2.09886">
        <ele>13</ele>
        <time>2024-03-23T01:37:01Z</time>
      </trkpt>
      <trkpt lat="47.59873" lon="-2.09889">
        <ele>13</ele>
        <time>2024-03-23T01:37:08Z</time>
      </trkpt>
      <trkpt lat="47.59862" lon="-2.09916">
        <ele>12</ele>
        <time>2024-03-23T01:37:36Z</time>
      </trkpt>
      <trkpt lat="47.59853" lon="-2.09911">
        <ele>11</ele>
        <time>2024-03-23T01:37:49Z</time>
      </trkpt>
      <trkpt lat="47.59838" lon="-2.09884">
        <ele>9</ele>
        <time>2024-03-23T01:38:21Z</time>
      </trkpt>
      <trkpt lat="47.59832" lon="-2.09885">
        <ele>8</ele>
        <time>2024-03-23T01:38:29Z</time>
      </trkpt>
      <trkpt lat="47.59822" lon="-2.09902">
        <ele>7</ele>
        <time>2024-03-23T01:38:49Z</time>
      </trkpt>
      <trkpt lat="47.59813" lon="-2.09935">
        <ele>7</ele>
        <time>2024-03-23T01:39:21Z</time>
      </trkpt>
      <trkpt lat="47.59814" lon="-2.09985">
        <ele>8</ele>
        <time>2024-03-23T01:40:06Z</time>
      </trkpt>
      <trkpt lat="47.59831" lon="-2.10056">
        <ele>10</ele>
        <time>2024-03-23T01:41:14Z</time>
      </trkpt>
      <trkpt lat="47.59832" lon="-2.10105">
        <ele>11</ele>
        <time>2024-03-23T01:41:58Z</time>
      </trkpt>
      <trkpt lat="47.5984" lon="-2.10175">
        <ele>14</ele>
        <time>2024-03-23T01:43:02Z</time>
      </trkpt>
      <trkpt lat="47.59836" lon="-2.10327">
        <ele>19</ele>
        <time>2024-03-23T01:45:19Z</time>
      </trkpt>
      <trkpt lat="47.5985" lon="-2.10366">
        <ele>18</ele>
        <time>2024-03-23T01:45:58Z</time>
      </trkpt>
      <trkpt lat="47.59835" lon="-2.10435">
        <ele>19</ele>
        <time>2024-03-23T01:47:04Z</time>
      </trkpt>
      <trkpt lat="47.59813" lon="-2.10577">
        <ele>22</ele>
        <time>2024-03-23T01:49:15Z</time>
      </trkpt>
      <trkpt lat="47.59804" lon="-2.10607">
        <ele>23</ele>
        <time>2024-03-23T01:49:44Z</time>
      </trkpt>
      <trkpt lat="47.59802" lon="-2.10639">
        <ele>23</ele>
        <time>2024-03-23T01:50:13Z</time>
      </trkpt>
      <trkpt lat="47.59791" lon="-2.10689">
        <ele>24</ele>
        <time>2024-03-23T01:51:01Z</time>
      </trkpt>
      <trkpt lat="47.59777" lon="-2.10791">
        <ele>24</ele>
        <time>2024-03-23T01:52:34Z</time>
      </trkpt>
      <trkpt lat="47.59772" lon="-2.10815">
        <ele>24</ele>
        <time>2024-03-23T01:52:57Z</time>
      </trkpt>
      <trkpt lat="47.59761" lon="-2.10817">
        <ele>24</ele>
        <time>2024-03-23T01:53:12Z</time>
        <extensions>
          <visugpx:TrkExtension xmlns:visugpx="https://www.visugpx.com/editgpx/">
            <visugpx:node>1</visugpx:node>
            </visugpx:TrkExtension>
        </extensions>
      </trkpt>
    </trkseg>
  </trk>
</gpx>